Time;durP1;ratioP1;P1;durP2;ratioP2;P2;SDS_P1;SDS_P2;PMS_P1;PMS_P2;Temp;Humidity;BMP_temperature;BMP_pressure;BME280_temperature;BME280_humidity;BME280_pressure;Samples;Min_cycle;Max_cycle;Signal;HPM_P1;HPM_P2
2023/03/07 00:02:14;;;;;;;7.72;4.15;;;3.90;99.90;;;;;;5059118;28;20048;-71
2023/03/07 00:04:44;;;;;;;13.40;4.63;;;3.90;99.90;;;;;;5067128;28;20032;-71
2023/03/07 00:07:10;;;;;;;8.82;4.55;;;3.90;99.90;;;;;;5049130;28;20057;-71
2023/03/07 00:09:36;;;;;;;11.32;5.82;;;3.90;99.90;;;;;;5068458;28;20040;-71
2023/03/07 00:12:03;;;;;;;13.40;5.03;;;3.90;99.90;;;;;;5044597;28;20055;-71
2023/03/07 00:14:28;;;;;;;13.05;6.03;;;3.90;99.90;;;;;;5050223;28;20036;-72
2023/03/07 00:16:54;;;;;;;12.70;5.82;;;3.90;99.90;;;;;;5043509;28;20090;-72
2023/03/07 00:19:20;;;;;;;12.82;5.35;;;3.90;99.90;;;;;;5051461;28;20118;-72
2023/03/07 00:21:45;;;;;;;11.27;5.10;;;3.90;99.90;;;;;;5042157;28;20048;-72
2023/03/07 00:24:11;;;;;;;14.43;4.60;;;3.80;99.90;;;;;;5066907;28;20484;-71
2023/03/07 00:26:38;;;;;;;9.00;4.20;;;3.80;99.90;;;;;;5061469;28;20113;-71
2023/03/07 00:29:08;;;;;;;12.15;4.93;;;3.80;99.90;;;;;;5061718;28;20046;-72
2023/03/07 00:31:35;;;;;;;12.63;4.43;;;3.80;99.90;;;;;;5059989;28;20499;-71
2023/03/07 00:34:01;;;;;;;8.00;3.47;;;3.80;99.90;;;;;;5065746;28;20050;-71
2023/03/07 00:36:27;;;;;;;9.80;4.20;;;3.80;99.90;;;;;;5051472;28;20044;-71
2023/03/07 00:38:53;;;;;;;13.70;4.07;;;3.80;99.90;;;;;;5078376;28;20047;-72
2023/03/07 00:41:21;;;;;;;12.25;3.72;;;3.80;99.90;;;;;;5043989;28;20032;-72
2023/03/07 00:43:48;;;;;;;10.38;3.50;;;3.80;99.90;;;;;;5066059;28;20044;-71
2023/03/07 00:46:14;;;;;;;9.15;3.05;;;3.80;99.90;;;;;;5064051;28;20122;-71
2023/03/07 00:48:40;;;;;;;10.05;2.92;;;3.90;99.90;;;;;;5063953;28;20036;-71
2023/03/07 00:51:08;;;;;;;13.27;3.15;;;3.90;99.90;;;;;;5048050;28;20609;-71
2023/03/07 00:53:34;;;;;;;11.50;3.03;;;3.90;99.90;;;;;;5080306;28;20459;-71
2023/03/07 00:56:01;;;;;;;12.60;3.10;;;3.90;99.90;;;;;;5064472;28;20040;-72
2023/03/07 00:58:29;;;;;;;15.25;2.97;;;3.90;99.90;;;;;;5045965;28;20047;-72
2023/03/07 01:00:55;;;;;;;8.80;2.83;;;4.00;99.90;;;;;;5062493;28;20116;-72
2023/03/07 01:03:22;;;;;;;11.18;2.65;;;4.00;99.90;;;;;;5048519;28;20100;-71
2023/03/07 01:05:48;;;;;;;10.50;2.65;;;4.00;99.90;;;;;;5046591;28;20032;-72
2023/03/07 01:08:15;;;;;;;9.65;2.47;;;4.00;99.90;;;;;;5049233;28;20051;-72
2023/03/07 01:10:41;;;;;;;12.40;2.63;;;4.00;99.90;;;;;;5065904;28;20046;-72
2023/03/07 01:13:06;;;;;;;11.63;2.50;;;4.10;99.90;;;;;;5066729;28;20035;-72
2023/03/07 01:15:32;;;;;;;12.88;3.05;;;4.00;99.90;;;;;;5057565;28;20035;-72
2023/03/07 01:17:58;;;;;;;12.10;2.72;;;4.00;99.90;;;;;;5062175;28;20496;-71
2023/03/07 01:20:24;;;;;;;12.32;2.65;;;4.00;99.90;;;;;;5062745;28;20044;-72
2023/03/07 01:22:49;;;;;;;8.75;2.63;;;4.00;99.90;;;;;;5048738;28;20035;-72
2023/03/07 01:25:15;;;;;;;15.07;2.85;;;4.10;99.90;;;;;;5062572;28;20066;-72
2023/03/07 01:27:40;;;;;;;10.02;2.88;;;4.10;99.90;;;;;;5064649;28;20032;-72
2023/03/07 01:30:07;;;;;;;12.90;2.65;;;4.00;99.90;;;;;;5047148;28;20651;-72
2023/03/07 01:32:34;;;;;;;8.50;2.58;;;4.00;99.90;;;;;;5064710;28;20580;-72
2023/03/07 01:35:00;;;;;;;16.42;3.30;;;4.00;99.90;;;;;;5060587;28;20123;-71
2023/03/07 01:37:25;;;;;;;12.95;3.67;;;4.00;99.90;;;;;;5050347;28;20044;-71
2023/03/07 01:39:54;;;;;;;11.35;3.20;;;4.00;99.90;;;;;;5066418;28;20473;-72
2023/03/07 01:42:20;;;;;;;18.88;3.00;;;4.00;99.90;;;;;;5064908;28;20059;-72
2023/03/07 01:45:01;;;;;;;9.82;2.58;;;4.00;99.90;;;;;;5063698;28;20134;-72
2023/03/07 01:47:27;;;;;;;13.23;2.50;;;4.00;99.90;;;;;;5066209;28;20089;-72
2023/03/07 01:49:53;;;;;;;8.35;2.63;;;4.00;99.90;;;;;;5061317;28;20036;-71
2023/03/07 01:52:30;;;;;;;20.42;3.03;;;3.90;99.90;;;;;;5062770;28;20040;-71
2023/03/07 01:55:07;;;;;;;12.80;2.50;;;3.70;99.90;;;;;;5066510;28;20048;-71
2023/03/07 01:57:37;;;;;;;12.35;2.78;;;3.70;99.90;;;;;;5069063;28;20036;-72
2023/03/07 02:00:08;;;;;;;12.80;2.15;;;3.60;99.90;;;;;;5069523;28;20078;-71
2023/03/07 02:02:36;;;;;;;8.93;2.28;;;3.50;99.90;;;;;;5064449;28;20075;-72
2023/03/07 02:05:22;;;;;;;16.95;2.67;;;3.50;99.90;;;;;;5066302;28;20070;-72
2023/03/07 02:07:50;;;;;;;16.67;3.13;;;3.40;99.90;;;;;;5051150;28;20089;-72
2023/03/07 02:10:20;;;;;;;14.73;2.40;;;3.40;99.90;;;;;;5064823;28;20434;-72
2023/03/07 02:12:45;;;;;;;8.73;2.42;;;3.30;99.90;;;;;;5065544;28;20035;-71
2023/03/07 02:15:12;;;;;;;8.52;2.38;;;3.30;99.90;;;;;;5064376;28;20381;-72
2023/03/07 02:17:43;;;;;;;12.13;2.25;;;3.30;99.90;;;;;;5067376;28;20054;-71
2023/03/07 02:20:38;;;;;;;6.10;2.72;;;3.30;99.90;;;;;;5082191;28;20072;-72
2023/03/07 02:23:06;;;;;;;9.50;2.83;;;3.20;99.90;;;;;;5066949;28;20051;-72
2023/03/07 02:25:52;;;;;;;10.02;2.20;;;3.20;99.90;;;;;;5043423;28;20055;-72
2023/03/07 02:28:18;;;;;;;13.25;2.65;;;3.10;99.90;;;;;;5069775;28;20052;-71
2023/03/07 02:31:05;;;;;;;9.73;2.70;;;3.20;99.90;;;;;;5053005;28;20039;-71
2023/03/07 02:33:30;;;;;;;12.45;2.95;;;3.20;99.90;;;;;;5067689;28;20935;-72
2023/03/07 02:36:04;;;;;;;10.25;2.33;;;3.30;99.90;;;;;;5062591;28;20115;-71
2023/03/07 02:38:32;;;;;;;11.52;2.60;;;3.40;99.90;;;;;;5064860;28;20037;-72
2023/03/07 02:40:57;;;;;;;9.68;2.38;;;3.40;99.90;;;;;;5069373;28;20502;-72
2023/03/07 02:43:24;;;;;;;9.10;2.17;;;3.40;99.90;;;;;;5070417;28;20036;-71
2023/03/07 02:45:50;;;;;;;11.55;2.13;;;3.50;99.90;;;;;;5069641;28;20042;-72
2023/03/07 02:48:15;;;;;;;11.70;2.95;;;3.50;99.90;;;;;;5066277;28;20508;-71
2023/03/07 02:50:41;;;;;;;10.30;2.75;;;3.50;99.90;;;;;;5065507;28;20051;-71
2023/03/07 02:53:06;;;;;;;7.25;2.28;;;3.50;99.90;;;;;;5052696;28;20050;-72
2023/03/07 02:55:32;;;;;;;9.00;2.40;;;3.40;99.90;;;;;;5085800;28;20047;-72
2023/03/07 02:57:58;;;;;;;8.60;2.10;;;3.40;99.90;;;;;;5066548;28;20043;-72
2023/03/07 03:00:24;;;;;;;14.45;2.90;;;3.40;99.90;;;;;;5062908;28;20609;-72
2023/03/07 03:02:50;;;;;;;8.13;2.28;;;3.30;99.90;;;;;;5086859;28;20036;-72
2023/03/07 03:05:15;;;;;;;14.02;2.50;;;3.30;99.90;;;;;;5069183;28;20565;-71
2023/03/07 03:07:41;;;;;;;6.78;2.28;;;3.20;99.90;;;;;;5064524;28;20034;-72
2023/03/07 03:10:07;;;;;;;9.80;2.67;;;3.20;99.90;;;;;;5053487;28;20043;-72
2023/03/07 03:12:33;;;;;;;10.68;3.08;;;3.10;99.90;;;;;;5068999;28;20039;-71
2023/03/07 03:14:58;;;;;;;11.93;2.38;;;3.10;99.90;;;;;;5052154;28;20039;-72
2023/03/07 03:17:24;;;;;;;9.30;2.42;;;3.10;99.90;;;;;;5053652;28;20122;-72
2023/03/07 03:19:49;;;;;;;11.05;2.63;;;3.10;99.90;;;;;;5056353;28;20119;-72
2023/03/07 03:22:15;;;;;;;11.23;2.50;;;3.00;99.90;;;;;;5068361;28;20131;-72
2023/03/07 03:24:41;;;;;;;9.20;2.60;;;3.00;99.90;;;;;;5081125;28;20063;-72
2023/03/07 03:27:08;;;;;;;9.18;2.53;;;3.00;99.90;;;;;;5061590;28;20028;-72
2023/03/07 03:29:34;;;;;;;10.70;2.75;;;3.10;99.90;;;;;;5068563;28;20032;-72
2023/03/07 03:32:00;;;;;;;8.85;2.42;;;3.10;99.90;;;;;;5065911;28;20506;-71
2023/03/07 03:34:26;;;;;;;10.32;2.67;;;3.00;99.90;;;;;;5086075;28;20055;-71
2023/03/07 03:36:52;;;;;;;10.07;2.40;;;3.10;99.90;;;;;;5047260;28;20048;-71
2023/03/07 03:39:18;;;;;;;11.32;2.45;;;3.10;99.90;;;;;;5052451;28;20043;-72
2023/03/07 03:41:43;;;;;;;11.60;2.60;;;3.00;99.90;;;;;;5059853;28;20039;-72
2023/03/07 03:44:09;;;;;;;11.07;2.55;;;3.00;99.90;;;;;;5067973;28;20036;-71
2023/03/07 03:46:35;;;;;;;6.20;2.30;;;3.10;99.90;;;;;;5060206;28;20032;-72
2023/03/07 03:49:01;;;;;;;8.50;2.33;;;3.10;99.90;;;;;;5051747;28;20113;-72
2023/03/07 03:51:28;;;;;;;8.93;2.67;;;3.00;99.90;;;;;;5063884;28;20094;-72
2023/03/07 03:53:54;;;;;;;7.75;2.10;;;3.00;99.90;;;;;;5083317;28;20990;-72
2023/03/07 03:56:22;;;;;;;13.82;3.20;;;3.10;99.90;;;;;;5062641;28;20040;-72
2023/03/07 03:58:53;;;;;;;9.38;3.38;;;3.00;99.90;;;;;;5061039;28;20056;-72
2023/03/07 04:01:22;;;;;;;10.45;1.95;;;3.10;99.90;;;;;;5064950;28;20041;-72
2023/03/07 04:03:49;;;;;;;12.10;2.50;;;3.00;99.90;;;;;;5052296;28;20398;-71
2023/03/07 04:06:22;;;;;;;8.90;2.20;;;3.00;99.90;;;;;;5042860;28;20036;-72
2023/03/07 04:08:48;;;;;;;7.47;2.40;;;3.10;99.90;;;;;;5043875;28;20075;-71
2023/03/07 04:11:14;;;;;;;9.90;2.38;;;3.00;99.90;;;;;;5060029;28;20090;-72
2023/03/07 04:13:40;;;;;;;8.73;2.42;;;3.00;99.90;;;;;;5031726;28;20079;-72
2023/03/07 04:16:06;;;;;;;10.88;2.50;;;2.90;99.90;;;;;;5066039;28;20040;-72
2023/03/07 04:18:32;;;;;;;12.88;2.97;;;2.90;99.90;;;;;;5079998;28;20035;-72
2023/03/07 04:20:58;;;;;;;11.60;2.70;;;3.00;99.90;;;;;;5065419;28;20046;-71
2023/03/07 04:23:24;;;;;;;6.30;2.30;;;3.00;99.90;;;;;;5062201;28;20361;-72
2023/03/07 04:25:54;;;;;;;9.85;2.47;;;3.00;99.90;;;;;;5033032;28;20564;-71
2023/03/07 04:28:20;;;;;;;8.18;2.60;;;3.00;99.90;;;;;;5066364;28;20457;-72
2023/03/07 04:30:48;;;;;;;12.77;2.83;;;3.00;99.90;;;;;;5050078;28;20567;-72
2023/03/07 04:33:15;;;;;;;13.38;3.15;;;3.10;99.90;;;;;;5067707;28;20126;-72
2023/03/07 04:35:40;;;;;;;9.27;2.38;;;3.10;99.90;;;;;;5067801;28;20040;-71
2023/03/07 04:38:06;;;;;;;6.28;2.40;;;3.20;99.90;;;;;;5066860;28;20395;-72
2023/03/07 04:40:33;;;;;;;11.40;2.95;;;3.20;99.90;;;;;;5066716;28;20439;-72
2023/03/07 04:42:59;;;;;;;11.68;2.70;;;3.20;99.90;;;;;;5067256;28;20071;-72
2023/03/07 04:45:24;;;;;;;8.23;2.50;;;3.20;99.90;;;;;;5065073;28;20060;-72
2023/03/07 04:47:50;;;;;;;8.88;2.75;;;3.20;99.90;;;;;;5066273;28;20121;-72
2023/03/07 04:50:19;;;;;;;6.63;2.40;;;3.20;99.90;;;;;;5064359;28;20040;-72
2023/03/07 04:52:45;;;;;;;11.32;2.53;;;3.20;99.90;;;;;;5063691;28;20482;-72
2023/03/07 04:55:11;;;;;;;10.18;2.42;;;3.20;99.90;;;;;;5063977;28;20050;-71
2023/03/07 04:57:37;;;;;;;8.48;2.50;;;3.20;99.90;;;;;;5067672;28;20067;-71
2023/03/07 05:00:08;;;;;;;9.65;2.80;;;3.20;99.90;;;;;;5057601;28;20036;-72
2023/03/07 05:02:34;;;;;;;11.13;3.13;;;3.20;99.90;;;;;;5046724;28;20043;-72
2023/03/07 05:05:00;;;;;;;12.05;2.67;;;3.20;99.90;;;;;;5061809;28;20036;-72
2023/03/07 05:07:25;;;;;;;7.50;2.58;;;3.10;99.90;;;;;;5066499;28;20036;-69
2023/03/07 05:09:51;;;;;;;9.63;2.40;;;3.10;99.90;;;;;;5044734;28;20044;-70
2023/03/07 05:12:16;;;;;;;13.43;2.83;;;3.10;99.90;;;;;;5049978;28;20046;-71
2023/03/07 05:14:42;;;;;;;8.70;2.40;;;3.20;99.90;;;;;;5066876;28;20400;-71
2023/03/07 05:17:09;;;;;;;10.45;2.70;;;3.30;99.90;;;;;;5054229;28;20080;-70
2023/03/07 05:19:34;;;;;;;11.90;2.70;;;3.30;99.90;;;;;;5066869;28;20454;-70
2023/03/07 05:22:01;;;;;;;7.35;2.30;;;3.40;99.90;;;;;;5044390;28;20048;-71
2023/03/07 05:24:27;;;;;;;15.38;2.95;;;3.40;99.90;;;;;;5047293;28;20047;-70
2023/03/07 05:26:52;;;;;;;9.70;2.40;;;3.40;99.90;;;;;;5064061;28;20044;-70
2023/03/07 05:29:18;;;;;;;8.73;2.20;;;3.50;99.90;;;;;;5061484;28;20114;-70
2023/03/07 05:31:43;;;;;;;10.88;2.50;;;3.50;99.90;;;;;;5048822;28;20476;-71
2023/03/07 05:34:09;;;;;;;9.50;2.50;;;3.50;99.90;;;;;;5063993;28;20483;-70
2023/03/07 05:36:35;;;;;;;9.85;2.40;;;3.50;99.90;;;;;;5060322;28;20043;-70
2023/03/07 05:39:01;;;;;;;6.63;2.13;;;3.50;99.90;;;;;;5043775;28;20047;-70
2023/03/07 05:41:27;;;;;;;6.97;2.50;;;3.50;99.90;;;;;;5066429;28;20051;-70
2023/03/07 05:43:54;;;;;;;10.15;2.95;;;3.50;99.90;;;;;;5065849;28;20032;-70
2023/03/07 05:46:20;;;;;;;6.93;2.50;;;3.50;99.90;;;;;;5066956;28;20044;-70
2023/03/07 05:48:45;;;;;;;6.47;2.10;;;3.40;99.90;;;;;;5047851;28;20051;-71
2023/03/07 05:51:11;;;;;;;6.88;2.38;;;3.40;99.90;;;;;;5057210;28;20369;-70
2023/03/07 05:53:37;;;;;;;9.27;2.42;;;3.30;99.90;;;;;;5064876;28;20040;-70
2023/03/07 05:56:02;;;;;;;6.35;2.08;;;3.30;99.90;;;;;;5064568;28;20389;-70
2023/03/07 05:58:28;;;;;;;9.18;2.60;;;3.30;99.90;;;;;;5062909;28;20040;-70
2023/03/07 06:00:53;;;;;;;6.72;2.05;;;3.30;99.90;;;;;;5063251;28;20043;-70
2023/03/07 06:03:19;;;;;;;8.98;2.63;;;3.30;99.90;;;;;;5044622;28;20032;-70
2023/03/07 06:05:49;;;;;;;5.53;2.67;;;3.30;99.90;;;;;;5062788;28;20063;-71
2023/03/07 06:08:14;;;;;;;6.97;2.13;;;3.30;99.90;;;;;;5060176;28;20054;-71
2023/03/07 06:10:41;;;;;;;7.28;2.40;;;3.30;99.90;;;;;;5066205;28;20040;-71
2023/03/07 06:13:19;;;;;;;7.75;2.35;;;3.30;99.90;;;;;;5060597;28;20044;-71
2023/03/07 06:15:56;;;;;;;6.10;2.35;;;3.30;99.90;;;;;;5063215;28;20054;-71
2023/03/07 06:18:24;;;;;;;4.85;2.05;;;3.30;99.90;;;;;;5061104;28;20044;-71
2023/03/07 06:21:04;;;;;;;8.55;2.47;;;3.30;99.90;;;;;;5062597;28;20051;-71
2023/03/07 06:23:32;;;;;;;7.13;2.60;;;3.30;99.90;;;;;;5066006;28;20089;-70
2023/03/07 06:25:58;;;;;;;8.73;2.35;;;3.20;99.90;;;;;;5047467;28;20045;-71
2023/03/07 06:28:23;;;;;;;7.32;2.10;;;3.20;99.90;;;;;;5062754;28;20045;-71
2023/03/07 06:30:49;;;;;;;8.85;2.42;;;3.30;99.90;;;;;;5058343;28;20050;-70
2023/03/07 06:33:15;;;;;;;12.05;2.75;;;3.30;99.90;;;;;;5044803;28;20177;-71
2023/03/07 06:35:42;;;;;;;7.25;2.33;;;3.30;99.90;;;;;;5058112;28;20043;-71
2023/03/07 06:38:08;;;;;;;8.35;2.20;;;3.40;99.90;;;;;;5064308;28;20079;-71
2023/03/07 06:40:34;;;;;;;7.45;2.28;;;3.40;99.90;;;;;;5048961;28;20420;-71
2023/03/07 06:43:00;;;;;;;9.52;2.40;;;3.40;99.90;;;;;;5065718;28;20037;-71
2023/03/07 06:45:26;;;;;;;9.90;2.35;;;3.40;99.90;;;;;;5053399;28;20412;-70
2023/03/07 06:47:51;;;;;;;3.92;1.90;;;3.30;99.90;;;;;;5059066;28;20671;-71
2023/03/07 06:50:17;;;;;;;7.40;1.85;;;3.20;99.90;;;;;;5050166;28;20036;-70
2023/03/07 06:52:43;;;;;;;5.75;2.03;;;3.10;99.90;;;;;;5068184;28;20090;-71
2023/03/07 06:55:09;;;;;;;8.02;2.10;;;3.00;99.90;;;;;;5052120;28;20647;-71
2023/03/07 06:57:35;;;;;;;8.15;2.55;;;3.00;99.90;;;;;;5050890;28;20382;-71
2023/03/07 07:00:04;;;;;;;8.05;2.20;;;3.00;99.90;;;;;;5067892;28;20090;-71
2023/03/07 07:02:30;;;;;;;6.97;2.22;;;2.90;99.90;;;;;;5049683;28;20040;-71
2023/03/07 07:04:57;;;;;;;5.72;2.00;;;2.90;99.90;;;;;;5056662;28;20110;-71
2023/03/07 07:07:23;;;;;;;7.50;2.28;;;2.90;99.90;;;;;;5067879;28;20380;-71
2023/03/07 07:09:50;;;;;;;7.38;2.20;;;2.90;99.90;;;;;;5063179;28;20047;-71
2023/03/07 07:12:16;;;;;;;6.90;2.00;;;2.90;99.90;;;;;;5086873;28;20093;-71
2023/03/07 07:14:42;;;;;;;6.00;2.25;;;2.90;99.90;;;;;;5051600;28;20400;-71
2023/03/07 07:17:07;;;;;;;2.92;1.80;;;3.00;99.90;;;;;;5070620;28;20031;-71
2023/03/07 07:19:33;;;;;;;8.65;1.90;;;3.00;99.90;;;;;;5065823;28;20036;-70
2023/03/07 07:21:59;;;;;;;5.40;2.00;;;3.00;99.90;;;;;;5063997;28;20044;-70
2023/03/07 07:24:25;;;;;;;4.45;2.30;;;3.00;99.90;;;;;;5066809;28;20048;-71
2023/03/07 07:26:51;;;;;;;5.47;2.20;;;3.00;99.90;;;;;;5051996;28;20083;-70
2023/03/07 07:29:16;;;;;;;6.18;2.00;;;3.10;99.90;;;;;;5066712;28;20388;-70
2023/03/07 07:31:42;;;;;;;4.68;2.00;;;3.10;99.90;;;;;;5063445;28;20514;-70
2023/03/07 07:34:07;;;;;;;9.73;2.20;;;3.10;99.90;;;;;;5050204;28;20146;-70
2023/03/07 07:36:33;;;;;;;5.88;2.10;;;3.10;99.90;;;;;;5082903;28;20514;-70
2023/03/07 07:39:03;;;;;;;3.90;2.00;;;3.20;99.90;;;;;;5065329;28;20484;-70
2023/03/07 07:41:30;;;;;;;5.45;2.17;;;3.20;99.90;;;;;;5070875;28;20206;-70
2023/03/07 07:43:56;;;;;;;7.60;2.03;;;3.10;99.90;;;;;;5070010;28;20048;-70
2023/03/07 07:46:22;;;;;;;5.00;2.03;;;3.10;99.90;;;;;;5049703;28;20033;-71
2023/03/07 07:48:48;;;;;;;6.63;2.10;;;3.20;99.90;;;;;;5051717;28;20411;-71
2023/03/07 07:51:13;;;;;;;5.72;2.13;;;3.20;99.90;;;;;;5065408;28;20411;-71
2023/03/07 07:53:39;;;;;;;7.28;2.20;;;3.30;99.90;;;;;;5053491;28;20043;-71
2023/03/07 07:56:05;;;;;;;7.35;2.28;;;3.30;99.90;;;;;;5044975;28;20086;-71
2023/03/07 07:58:30;;;;;;;5.60;2.17;;;3.30;99.90;;;;;;5047074;28;20044;-72
2023/03/07 08:00:56;;;;;;;9.20;2.30;;;3.30;99.90;;;;;;5066778;28;20403;-71
2023/03/07 08:03:22;;;;;;;6.35;2.00;;;3.40;99.90;;;;;;5052556;28;20499;-71
2023/03/07 08:05:48;;;;;;;3.90;1.90;;;3.40;99.90;;;;;;5050725;28;20059;-71
2023/03/07 08:08:15;;;;;;;6.95;2.05;;;3.40;99.90;;;;;;5043785;28;20105;-71
2023/03/07 08:10:42;;;;;;;6.72;1.83;;;3.50;99.90;;;;;;5063598;28;20794;-71
2023/03/07 08:13:11;;;;;;;5.95;2.05;;;3.50;99.90;;;;;;5062549;28;20052;-71
2023/03/07 08:15:37;;;;;;;5.00;1.80;;;3.60;99.90;;;;;;5051027;28;20053;-71
2023/03/07 08:18:03;;;;;;;3.75;1.90;;;3.60;99.90;;;;;;5066295;28;20577;-71
2023/03/07 08:20:28;;;;;;;6.82;1.80;;;3.60;99.90;;;;;;5050442;28;20044;-71
2023/03/07 08:22:54;;;;;;;6.15;2.20;;;3.70;99.90;;;;;;5051771;28;20043;-71
2023/03/07 08:25:22;;;;;;;7.05;2.33;;;3.70;99.90;;;;;;5038154;28;20417;-71
2023/03/07 08:27:53;;;;;;;8.77;2.22;;;3.80;99.90;;;;;;5063452;28;20045;-71
2023/03/07 08:30:20;;;;;;;6.60;2.33;;;3.80;99.90;;;;;;5065386;28;20093;-71
2023/03/07 08:32:49;;;;;;;7.30;2.25;;;3.90;99.90;;;;;;5046051;28;20089;-71
2023/03/07 08:35:15;;;;;;;5.22;2.53;;;3.90;99.90;;;;;;5062299;28;20387;-71
2023/03/07 08:37:40;;;;;;;7.13;2.20;;;3.90;99.90;;;;;;5058148;28;20032;-71
2023/03/07 08:40:06;;;;;;;7.82;2.53;;;3.90;99.90;;;;;;5055527;28;20035;-70
2023/03/07 08:42:32;;;;;;;5.25;2.13;;;3.70;99.90;;;;;;5059613;28;20055;-70
2023/03/07 08:44:57;;;;;;;6.40;2.10;;;3.60;99.90;;;;;;5059296;28;20032;-70
2023/03/07 08:47:23;;;;;;;8.07;2.05;;;3.40;99.90;;;;;;5056659;28;20459;-70
2023/03/07 08:49:49;;;;;;;5.45;2.00;;;3.20;99.90;;;;;;5078929;28;20040;-70
2023/03/07 08:52:14;;;;;;;8.60;2.40;;;2.90;99.90;;;;;;5056792;28;20040;-70
2023/03/07 08:54:40;;;;;;;8.52;2.00;;;2.80;99.90;;;;;;5035700;28;20028;-70
2023/03/07 08:57:05;;;;;;;8.52;2.38;;;2.70;99.90;;;;;;5052386;28;20040;-70
2023/03/07 08:59:31;;;;;;;7.78;2.20;;;2.70;99.90;;;;;;5041334;28;20032;-70
2023/03/07 09:01:57;;;;;;;5.45;2.20;;;2.70;99.90;;;;;;5056919;28;20064;-70
2023/03/07 09:04:23;;;;;;;4.63;2.20;;;2.70;99.90;;;;;;5060278;28;20048;-70
2023/03/07 09:06:49;;;;;;;6.57;2.20;;;2.60;99.90;;;;;;5055449;28;20029;-70
2023/03/07 09:09:14;;;;;;;5.32;1.98;;;2.60;99.90;;;;;;5030440;28;20040;-70
2023/03/07 09:11:40;;;;;;;6.88;1.90;;;2.50;99.90;;;;;;5047681;28;20093;-70
2023/03/07 09:14:05;;;;;;;6.25;2.38;;;2.40;99.90;;;;;;5042866;28;20078;-70
2023/03/07 09:16:31;;;;;;;10.10;2.33;;;2.40;99.90;;;;;;5056245;28;20051;-70
2023/03/07 09:18:56;;;;;;;5.65;2.10;;;2.40;99.90;;;;;;5056888;28;20590;-70
2023/03/07 09:21:22;;;;;;;6.07;2.30;;;2.40;99.90;;;;;;5045003;28;20040;-70
2023/03/07 09:23:48;;;;;;;3.80;1.98;;;2.50;99.90;;;;;;5060913;28;20048;-70
2023/03/07 09:26:14;;;;;;;3.80;2.10;;;2.60;99.90;;;;;;5048661;28;20029;-70
2023/03/07 09:28:40;;;;;;;5.53;2.05;;;2.70;99.90;;;;;;5040662;28;20485;-70
2023/03/07 09:31:11;;;;;;;6.53;2.20;;;2.70;99.90;;;;;;5048030;28;20119;-71
2023/03/07 09:33:36;;;;;;;5.18;2.10;;;2.80;99.90;;;;;;5048549;28;20510;-70
2023/03/07 09:36:07;;;;;;;8.25;2.63;;;2.80;99.90;;;;;;5050534;28;20028;-70
2023/03/07 09:38:34;;;;;;;5.95;2.55;;;2.80;99.90;;;;;;5049627;28;20048;-70
2023/03/07 09:41:29;;;;;;;4.47;2.25;;;2.80;99.90;;;;;;5045761;28;20036;-70
2023/03/07 09:43:57;;;;;;;7.90;2.45;;;2.80;99.90;;;;;;5045161;28;20036;-70
2023/03/07 09:47:09;;;;;;;9.68;2.20;;;2.90;99.90;;;;;;5042116;28;20109;-70
2023/03/07 09:49:50;;;;;;;6.28;2.25;;;3.00;99.90;;;;;;5048701;28;20381;-70
2023/03/07 09:52:21;;;;;;;8.93;2.58;;;3.10;99.90;;;;;;5046766;28;20546;-70
2023/03/07 09:54:59;;;;;;;5.25;2.00;;;3.20;99.90;;;;;;5030302;28;20067;-70
2023/03/07 09:57:34;;;;;;;4.78;2.10;;;3.40;99.90;;;;;;5030257;28;20151;-70
2023/03/07 10:00:09;;;;;;;9.57;2.75;;;3.50;99.90;;;;;;5048336;28;20067;-71
2023/03/07 10:02:48;;;;;;;7.68;2.40;;;3.50;99.90;;;;;;5047945;28;20076;-70
2023/03/07 10:05:25;;;;;;;7.97;2.40;;;3.60;99.90;;;;;;5026006;28;20075;-70
2023/03/07 10:07:52;;;;;;;5.90;2.25;;;3.70;99.90;;;;;;5048083;28;20348;-70
2023/03/07 10:10:41;;;;;;;8.73;2.50;;;3.80;99.90;;;;;;5029581;28;20053;-70
2023/03/07 10:13:44;;;;;;;4.85;2.15;;;3.90;99.90;;;;;;5046066;28;20497;-70
2023/03/07 10:16:18;;;;;;;8.95;2.40;;;4.00;99.90;;;;;;5033879;28;20047;-70
2023/03/07 10:18:53;;;;;;;;;;;4.10;99.90;;;;;;5034574;28;20350;-70
2023/03/07 10:22:01;;;;;;;4.38;2.00;;;4.20;99.90;;;;;;5035510;28;19928;-71
2023/03/07 10:24:30;;;;;;;5.22;2.10;;;4.30;99.90;;;;;;5054235;28;20047;-70
2023/03/07 10:27:08;;;;;;;4.97;2.10;;;4.30;99.90;;;;;;5054314;28;20055;-70
2023/03/07 10:29:53;;;;;;;10.10;2.60;;;4.30;99.90;;;;;;5069564;28;20051;-70
2023/03/07 10:32:47;;;;;;;12.43;2.60;;;4.30;99.90;;;;;;5054578;28;20040;-70
2023/03/07 10:35:19;;;;;;;9.30;2.30;;;4.40;99.90;;;;;;5051291;28;20047;-70
2023/03/07 10:37:49;;;;;;;10.52;2.45;;;4.40;99.90;;;;;;5068210;28;20051;-71
2023/03/07 10:40:20;;;;;;;8.35;2.13;;;4.40;99.90;;;;;;5061166;28;20478;-71
2023/03/07 10:42:46;;;;;;;10.77;2.38;;;4.50;99.90;;;;;;5052878;28;20381;-70
2023/03/07 10:45:13;;;;;;;10.40;2.40;;;4.50;99.90;;;;;;5070085;28;20043;-70
2023/03/07 10:47:39;;;;;;;7.70;2.20;;;4.60;99.90;;;;;;5071582;28;20373;-70
2023/03/07 10:50:32;;;;;;;9.30;2.50;;;4.70;99.90;;;;;;5068119;28;20043;-70
2023/03/07 10:53:01;;;;;;;10.27;2.40;;;4.80;99.90;;;;;;5069339;28;20051;-70
2023/03/07 10:55:43;;;;;;;5.28;2.25;;;4.90;99.90;;;;;;5066011;28;20465;-70
2023/03/07 10:58:25;;;;;;;8.98;2.30;;;4.80;99.90;;;;;;5050413;28;20284;-70
2023/03/07 11:00:59;;;;;;;7.60;2.30;;;4.80;99.90;;;;;;5069498;28;20101;-70
2023/03/07 11:03:26;;;;;;;8.48;2.40;;;4.80;99.90;;;;;;5066344;28;20082;-70
2023/03/07 11:05:52;;;;;;;9.02;2.80;;;4.90;99.90;;;;;;5053007;28;20507;-71
2023/03/07 11:08:25;;;;;;;7.10;2.20;;;5.00;99.90;;;;;;5052735;28;20101;-70
2023/03/07 11:10:51;;;;;;;7.57;2.42;;;5.10;99.90;;;;;;5069999;28;20039;-71
2023/03/07 11:13:18;;;;;;;8.18;2.50;;;5.30;99.90;;;;;;5061285;28;20048;-71
2023/03/07 11:15:44;;;;;;;7.57;2.22;;;5.30;99.90;;;;;;5068187;28;20040;-70
2023/03/07 11:18:29;;;;;;;6.82;2.30;;;5.40;99.90;;;;;;5069209;28;20067;-71
2023/03/07 11:20:55;;;;;;;8.23;2.45;;;5.30;99.90;;;;;;5064899;28;20043;-71
2023/03/07 11:23:32;;;;;;;8.32;2.30;;;5.20;99.90;;;;;;5069416;28;20053;-70
2023/03/07 11:26:21;;;;;;;8.43;2.13;;;5.20;99.90;;;;;;5068236;28;20445;-70
2023/03/07 11:28:47;;;;;;;8.90;2.38;;;5.30;99.90;;;;;;5068036;28;20349;-70
2023/03/07 11:31:24;;;;;;;8.70;2.47;;;5.40;99.90;;;;;;5061325;28;20032;-71
2023/03/07 11:33:58;;;;;;;7.18;2.20;;;5.60;99.90;;;;;;5070208;28;20393;-70
2023/03/07 11:36:30;;;;;;;6.78;2.35;;;5.80;99.90;;;;;;5051565;28;20048;-71
2023/03/07 11:39:15;;;;;;;6.93;2.00;;;6.00;99.90;;;;;;5049383;28;20036;-71
2023/03/07 11:41:54;;;;;;;9.13;2.20;;;6.10;99.90;;;;;;5066575;28;20126;-71
2023/03/07 11:44:24;;;;;;;12.98;2.83;;;6.10;99.90;;;;;;5064214;28;20082;-71
2023/03/07 11:47:23;;;;;;;9.82;2.30;;;6.10;99.90;;;;;;5040760;28;20036;-71
2023/03/07 11:50:10;;;;;;;6.15;1.98;;;5.90;99.90;;;;;;5065082;28;20047;-70
2023/03/07 11:53:06;;;;;;;9.75;2.05;;;5.60;99.90;;;;;;5064727;28;20543;-71
2023/03/07 11:55:49;;;;;;;7.70;2.33;;;5.20;99.90;;;;;;5064880;28;20134;-71
2023/03/07 11:58:45;;;;;;;8.77;2.17;;;4.90;99.90;;;;;;5064635;28;20056;-71
2023/03/07 12:01:35;;;;;;;7.10;1.80;;;4.70;99.90;;;;;;5009330;28;20491;-70
2023/03/07 12:04:20;;;;;;;9.20;2.83;;;4.70;99.90;;;;;;5062661;28;20036;-71
2023/03/07 12:06:52;;;;;;;6.10;1.90;;;4.70;99.90;;;;;;5040184;28;20379;-71
2023/03/07 12:09:36;;;;;;;5.82;2.22;;;4.90;99.90;;;;;;5065721;28;20047;-71
2023/03/07 12:12:14;;;;;;;7.68;2.47;;;5.20;99.90;;;;;;5082160;28;20497;-70
2023/03/07 12:15:03;;;;;;;7.78;1.85;;;5.40;99.90;;;;;;5059136;28;20044;-71
2023/03/07 12:17:31;;;;;;;9.57;2.20;;;5.50;99.90;;;;;;5048050;28;20040;-70
2023/03/07 12:20:12;;;;;;;6.93;2.00;;;5.60;99.90;;;;;;5041280;28;20606;-70
2023/03/07 12:22:59;;;;;;;5.72;1.95;;;5.80;99.90;;;;;;5058528;28;20031;-70
2023/03/07 12:25:45;;;;;;;8.77;1.98;;;6.10;99.90;;;;;;5065288;28;20101;-71
2023/03/07 12:28:16;;;;;;;8.38;2.00;;;6.30;99.90;;;;;;5067588;28;20031;-70
2023/03/07 12:30:57;;;;;;;7.97;2.25;;;6.50;99.90;;;;;;5050281;28;20060;-70
2023/03/07 12:33:48;;;;;;;7.30;1.88;;;6.80;99.90;;;;;;5063531;28;20039;-70
2023/03/07 12:36:37;;;;;;;6.30;1.80;;;7.00;99.90;;;;;;5049927;28;20085;-70
2023/03/07 12:39:12;;;;;;;8.63;2.10;;;7.30;99.90;;;;;;5067852;28;20032;-70
2023/03/07 12:42:12;;;;;;;5.82;1.90;;;7.40;99.90;;;;;;5063605;28;20036;-70
2023/03/07 12:45:08;;;;;;;5.57;1.63;;;7.40;99.90;;;;;;5064244;28;20048;-70
2023/03/07 12:47:33;;;;;;;3.53;1.45;;;7.50;99.90;;;;;;5067684;28;20428;-70
2023/03/07 12:50:30;;;;;;;4.85;1.90;;;7.50;99.90;;;;;;5067300;28;20078;-70
2023/03/07 12:53:11;;;;;;;6.63;1.80;;;7.40;99.90;;;;;;5050622;28;20086;-70
2023/03/07 12:55:46;;;;;;;5.93;1.90;;;7.20;99.90;;;;;;5064996;28;20040;-71
2023/03/07 12:58:33;;;;;;;7.35;2.10;;;7.30;99.90;;;;;;5065971;28;20445;-70
2023/03/07 13:01:25;;;;;;;8.45;2.17;;;7.60;99.90;;;;;;5060261;28;20094;-70
2023/03/07 13:04:07;;;;;;;6.05;2.20;;;7.40;99.90;;;;;;5066956;28;20578;-70
2023/03/07 13:06:38;;;;;;;5.35;2.15;;;7.00;99.90;;;;;;5067053;28;20135;-70
2023/03/07 13:09:05;;;;;;;6.88;1.95;;;6.60;99.90;;;;;;5064446;28;20110;-70
2023/03/07 13:11:32;;;;;;;4.72;1.90;;;6.50;99.90;;;;;;5063935;28;20048;-71